createdAt,value
2023-01-11T00:02:19.087Z,9.90
2023-01-11T00:05:21.405Z,9.90
2023-01-11T00:08:27.062Z,9.80
2023-01-11T00:11:29.371Z,9.80
2023-01-11T00:14:31.503Z,9.80
2023-01-11T00:17:33.711Z,9.80
2023-01-11T00:20:39.251Z,9.80
2023-01-11T00:23:41.322Z,9.80
2023-01-11T00:26:43.416Z,9.80
2023-01-11T00:29:45.579Z,9.80
2023-01-11T00:32:47.878Z,9.80
2023-01-11T00:35:53.156Z,9.80
2023-01-11T00:38:55.593Z,9.80
2023-01-11T00:42:16.304Z,9.80
2023-01-11T00:45:36.873Z,9.80
2023-01-11T00:48:39.055Z,9.80
2023-01-11T00:51:41.211Z,9.80
2023-01-11T00:54:45.462Z,9.80
2023-01-11T00:57:50.548Z,9.80
2023-01-11T01:00:53.063Z,9.80
2023-01-11T01:03:55.183Z,9.80
2023-01-11T01:06:59.635Z,9.80
2023-01-11T01:10:02.662Z,9.70
2023-01-11T01:13:23.635Z,9.80
2023-01-11T01:16:25.850Z,9.80
2023-01-11T01:19:29.466Z,9.80
2023-01-11T01:22:31.655Z,9.80
2023-01-11T01:25:36.118Z,9.70
2023-01-11T01:28:38.202Z,9.80
2023-01-11T01:31:40.733Z,9.70
2023-01-11T01:34:42.861Z,9.80
2023-01-11T01:37:45.162Z,9.80
2023-01-11T01:40:48.640Z,9.70
2023-01-11T01:44:01.423Z,9.70
2023-01-11T01:47:04.561Z,9.80
2023-01-11T01:50:29.611Z,9.70
2023-01-11T01:53:45.464Z,9.70
2023-01-11T01:56:52.270Z,9.80
2023-01-11T02:00:00.907Z,9.70
2023-01-11T02:03:03.827Z,9.70
2023-01-11T02:06:06.191Z,9.70
2023-01-11T02:09:36.878Z,9.70
2023-01-11T02:12:45.109Z,9.80
2023-01-11T02:16:07.896Z,9.70
2023-01-11T02:19:20.877Z,9.70
2023-01-11T02:22:44.051Z,9.70
2023-01-11T02:26:13.697Z,9.70
2023-01-11T02:29:28.142Z,9.70
2023-01-11T02:32:48.741Z,9.70
2023-01-11T02:35:56.609Z,9.70
2023-01-11T02:39:06.858Z,9.70
2023-01-11T02:42:33.690Z,9.70
2023-01-11T02:46:02.190Z,9.70
2023-01-11T02:49:35.901Z,9.70
2023-01-11T02:53:03.275Z,9.70
2023-01-11T02:56:12.351Z,9.70
2023-01-11T02:59:21.791Z,9.70
2023-01-11T03:02:24.859Z,9.70
2023-01-11T03:05:27.016Z,9.70
2023-01-11T03:09:30.685Z,9.70
2023-01-11T03:12:57.217Z,9.70
2023-01-11T03:16:27.842Z,9.70
2023-01-11T03:19:49.828Z,9.70
2023-01-11T03:23:14.947Z,9.60
2023-01-11T03:26:48.250Z,9.70
2023-01-11T03:30:11.672Z,9.70
2023-01-11T03:33:22.422Z,9.70
2023-01-11T03:36:36.561Z,9.60
2023-01-11T03:40:00.667Z,9.60
2023-01-11T03:43:12.779Z,9.60
2023-01-11T03:46:40.068Z,9.60
2023-01-11T03:49:54.618Z,9.60
2023-01-11T03:52:59.295Z,9.60
2023-01-11T03:56:03.206Z,9.60
2023-01-11T03:59:05.465Z,9.60
2023-01-11T04:02:15.994Z,9.60
2023-01-11T04:05:18.080Z,9.60
2023-01-11T04:08:20.328Z,9.60
2023-01-11T04:11:22.479Z,9.60
2023-01-11T04:14:24.637Z,9.60
2023-01-11T04:17:29.831Z,9.60
2023-01-11T04:20:34.689Z,9.60
2023-01-11T04:23:36.970Z,9.60
2023-01-11T04:26:39.350Z,9.60
2023-01-11T04:29:41.541Z,9.60
2023-01-11T04:32:43.673Z,9.60
2023-01-11T04:35:46.010Z,9.60
2023-01-11T04:38:48.152Z,9.60
2023-01-11T04:42:09.150Z,9.60
2023-01-11T04:45:11.416Z,9.60
2023-01-11T04:48:16.922Z,9.60
2023-01-11T04:51:19.179Z,9.60
2023-01-11T04:54:21.314Z,9.60
2023-01-11T04:57:25.431Z,9.60
2023-01-11T05:00:27.547Z,9.50
2023-01-11T05:03:32.057Z,9.60
2023-01-11T05:06:34.216Z,9.50
2023-01-11T05:09:36.460Z,9.60
2023-01-11T05:12:38.807Z,9.60
2023-01-11T05:15:40.977Z,9.60
2023-01-11T05:18:48.531Z,9.60
2023-01-11T05:21:50.639Z,9.60
2023-01-11T05:24:52.831Z,9.60
2023-01-11T05:27:54.942Z,9.60
2023-01-11T05:30:57.036Z,9.60
2023-01-11T05:33:59.691Z,9.60
2023-01-11T05:37:01.782Z,9.50
2023-01-11T05:40:07.689Z,9.50
2023-01-11T05:43:09.943Z,9.60
2023-01-11T05:46:14.286Z,9.50
2023-01-11T05:49:17.020Z,9.50
2023-01-11T05:52:19.146Z,9.50
2023-01-11T05:55:21.235Z,9.50
2023-01-11T05:58:26.150Z,9.50
2023-01-11T06:01:29.550Z,9.50
2023-01-11T06:04:31.668Z,9.50
2023-01-11T06:07:33.808Z,9.50
2023-01-11T06:10:35.916Z,9.50
2023-01-11T06:13:38.159Z,9.50
2023-01-11T06:16:40.473Z,9.50
2023-01-11T06:19:42.617Z,9.50
2023-01-11T06:22:44.776Z,9.50
2023-01-11T06:25:50.247Z,9.50
2023-01-11T06:28:52.586Z,9.40
2023-01-11T06:31:54.730Z,9.50
2023-01-11T06:34:56.858Z,9.40
2023-01-11T06:37:59.018Z,9.50
2023-01-11T06:41:03.159Z,9.40
2023-01-11T06:44:06.170Z,9.40
2023-01-11T06:47:08.262Z,9.40
2023-01-11T06:50:11.032Z,9.40
2023-01-11T06:53:13.295Z,9.40
2023-01-11T06:56:19.073Z,9.40
2023-01-11T06:59:21.730Z,9.40
2023-01-11T07:02:24.034Z,9.40
2023-01-11T07:05:26.280Z,9.40
2023-01-11T07:08:28.768Z,9.40
2023-01-11T07:11:32.292Z,9.40
2023-01-11T07:14:34.543Z,9.40
2023-01-11T07:17:37.284Z,9.40
2023-01-11T07:20:41.558Z,9.40
2023-01-11T07:23:43.906Z,9.40
2023-01-11T07:26:46.094Z,9.40
2023-01-11T07:29:48.449Z,9.40
2023-01-11T07:32:50.633Z,9.40
2023-01-11T07:35:52.961Z,9.40
2023-01-11T07:38:55.177Z,9.40
2023-01-11T07:42:16.244Z,9.40
2023-01-11T07:45:19.087Z,9.40
2023-01-11T07:48:27.937Z,9.30
2023-01-11T07:51:30.136Z,9.30
2023-01-11T07:54:32.291Z,9.30
2023-01-11T07:57:35.504Z,9.30
2023-01-11T08:00:37.762Z,9.30
2023-01-11T08:03:40.037Z,9.30
2023-01-11T08:06:42.398Z,9.30
2023-01-11T08:09:44.534Z,9.30
2023-01-11T08:13:06.272Z,9.30
2023-01-11T08:16:08.689Z,9.30
2023-01-11T08:19:10.872Z,9.30
2023-01-11T08:22:13.196Z,9.30
2023-01-11T08:25:15.798Z,9.30
2023-01-11T08:28:17.951Z,9.30
2023-01-11T08:31:21.609Z,9.30
2023-01-11T08:34:23.848Z,9.30
2023-01-11T08:37:25.989Z,9.30
2023-01-11T08:40:28.438Z,9.30
2023-01-11T08:43:31.803Z,9.30
2023-01-11T08:46:34.344Z,9.20
2023-01-11T08:49:36.654Z,9.30
2023-01-11T08:52:38.864Z,9.20
2023-01-11T08:55:44.802Z,9.20
2023-01-11T08:58:46.982Z,9.30
2023-01-11T09:01:49.334Z,9.20
2023-01-11T09:04:51.536Z,9.20
2023-01-11T09:07:57.432Z,9.30
2023-01-11T09:11:02.017Z,9.20
2023-01-11T09:14:04.457Z,9.20
2023-01-11T09:17:06.977Z,9.20
2023-01-11T09:20:12.052Z,9.20
2023-01-11T09:23:14.124Z,9.20
2023-01-11T09:26:16.342Z,9.20
2023-01-11T09:29:19.353Z,9.20
2023-01-11T09:32:21.830Z,9.20
2023-01-11T09:35:24.012Z,9.20
2023-01-11T09:38:29.783Z,9.20
2023-01-11T09:41:50.604Z,9.20
2023-01-11T09:45:00.655Z,9.20
2023-01-11T09:48:13.101Z,9.20
2023-01-11T09:51:16.627Z,9.20
2023-01-11T09:54:24.984Z,9.20
2023-01-11T09:57:46.444Z,9.20
2023-01-11T10:01:01.509Z,9.20
2023-01-11T10:04:24.098Z,9.20
2023-01-11T10:07:40.005Z,9.20
2023-01-11T10:18:33.343Z,9.20
2023-01-11T10:18:57.965Z,9.20
2023-01-11T10:22:04.619Z,9.20
2023-01-11T10:25:14.898Z,9.20
2023-01-11T10:28:29.548Z,9.20
2023-01-11T10:31:31.652Z,9.20
2023-01-11T10:34:59.887Z,9.20
2023-01-11T10:38:32.947Z,9.20
2023-01-11T10:41:43.102Z,9.20
2023-01-11T10:45:00.283Z,9.20
2023-01-11T10:48:23.158Z,9.20
2023-01-11T10:51:37.300Z,9.20
2023-01-11T10:54:46.144Z,9.20
2023-01-11T10:58:24.225Z,9.20
2023-01-11T11:01:46.691Z,9.20
2023-01-11T11:05:00.895Z,9.20
2023-01-11T11:08:19.737Z,9.20
2023-01-11T11:11:53.282Z,9.20
2023-01-11T11:15:23.766Z,9.20
2023-01-11T11:18:25.945Z,9.20
2023-01-11T11:21:33.948Z,9.20
2023-01-11T11:24:56.405Z,9.20
2023-01-11T11:35:31.368Z,9.20
2023-01-11T11:38:39.024Z,9.20
2023-01-11T11:42:04.172Z,9.20
2023-01-11T11:45:09.280Z,9.20
2023-01-11T11:51:48.195Z,9.20
2023-01-11T11:54:56.225Z,9.20
2023-01-11T11:58:05.211Z,9.20
2023-01-11T12:01:08.485Z,9.20
2023-01-11T12:04:21.388Z,9.20
2023-01-11T12:07:28.868Z,9.20
2023-01-11T12:10:32.296Z,9.20
2023-01-11T12:13:39.714Z,9.20
2023-01-11T12:16:43.530Z,9.20
2023-01-11T12:19:48.012Z,9.20
2023-01-11T12:22:51.497Z,9.30
2023-01-11T12:26:05.907Z,9.20
2023-01-11T12:29:48.358Z,9.30
2023-01-11T12:33:08.680Z,9.30
2023-01-11T12:36:27.046Z,9.20
2023-01-11T12:39:52.118Z,9.30
2023-01-11T12:43:28.365Z,9.30
2023-01-11T12:47:01.113Z,9.30
2023-01-11T12:50:25.250Z,9.30
2023-01-11T12:53:49.329Z,9.30
2023-01-11T12:57:03.599Z,9.30
2023-01-11T13:00:31.371Z,9.30
2023-01-11T13:03:54.848Z,9.30
2023-01-11T13:07:12.116Z,9.30
2023-01-11T13:10:24.457Z,9.30
2023-01-11T13:13:54.551Z,9.30
2023-01-11T13:17:21.562Z,9.30
2023-01-11T13:20:48.672Z,9.30
2023-01-11T13:24:18.568Z,9.30
2023-01-11T13:27:24.258Z,9.30
2023-01-11T13:30:27.368Z,9.30
2023-01-11T13:33:32.179Z,9.30
2023-01-11T13:36:42.305Z,9.30
2023-01-11T13:39:48.504Z,9.30
2023-01-11T13:42:58.221Z,9.30
2023-01-11T13:46:08.408Z,9.30
2023-01-11T13:49:25.446Z,9.30
2023-01-11T13:52:48.562Z,9.30
2023-01-11T13:55:56.605Z,9.30
2023-01-11T13:59:12.100Z,9.30
2023-01-11T14:02:59.421Z,9.30
2023-01-11T14:06:18.087Z,9.30
2023-01-11T14:09:42.901Z,9.30
2023-01-11T14:13:03.527Z,9.30
2023-01-11T14:16:21.049Z,9.40
2023-01-11T14:19:39.656Z,9.40
2023-01-11T14:23:00.485Z,9.30
2023-01-11T14:26:30.931Z,9.30
2023-01-11T14:29:59.350Z,9.40
2023-01-11T14:33:16.676Z,9.40
2023-01-11T14:36:36.516Z,9.30
2023-01-11T14:40:16.167Z,9.40
2023-01-11T14:43:55.305Z,9.40
2023-01-11T14:47:28.179Z,9.40
2023-01-11T14:50:53.962Z,9.40
2023-01-11T14:54:21.451Z,9.40
2023-01-11T14:57:40.915Z,9.40
2023-01-11T15:00:43.020Z,9.40
2023-01-11T15:03:49.440Z,9.40
2023-01-11T15:06:55.384Z,9.40
2023-01-11T15:10:00.415Z,9.40
2023-01-11T15:13:12.045Z,9.40
2023-01-11T15:16:40.725Z,9.40
2023-01-11T15:19:44.019Z,9.40
2023-01-11T15:22:54.959Z,9.40
2023-01-11T15:26:03.440Z,9.40
2023-01-11T15:29:05.721Z,9.40
2023-01-11T15:32:15.209Z,9.40
2023-01-11T15:35:31.992Z,9.40
2023-01-11T15:39:07.145Z,9.40
2023-01-11T15:42:15.522Z,9.50
2023-01-11T15:45:36.512Z,9.40
2023-01-11T15:48:51.281Z,9.40
2023-01-11T15:52:14.560Z,9.40
2023-01-11T15:55:48.496Z,9.40
2023-01-11T15:59:24.443Z,9.50
2023-01-11T16:02:54.690Z,9.40
2023-01-11T16:06:17.665Z,9.40
2023-01-11T16:09:28.784Z,9.50
2023-01-11T16:12:58.303Z,9.50
2023-01-11T16:16:10.990Z,9.50
2023-01-11T16:19:22.602Z,9.40
2023-01-11T16:22:28.180Z,9.50
2023-01-11T16:25:34.323Z,9.50
2023-01-11T16:28:37.583Z,9.50
2023-01-11T16:32:00.130Z,9.50
2023-01-11T16:35:03.729Z,9.50
2023-01-11T16:38:08.040Z,9.50
2023-01-11T16:41:13.247Z,9.50
2023-01-11T16:44:24.976Z,9.50
2023-01-11T16:47:27.056Z,9.50
2023-01-11T16:50:29.467Z,9.50
2023-01-11T16:53:42.863Z,9.50
2023-01-11T16:56:49.605Z,9.50
2023-01-11T17:00:04.269Z,9.50
2023-01-11T17:03:22.018Z,9.50
2023-01-11T17:06:25.582Z,9.50
2023-01-11T17:09:29.717Z,9.50
2023-01-11T17:12:31.891Z,9.50
2023-01-11T17:15:57.379Z,9.50
2023-01-11T17:19:09.342Z,9.50
2023-01-11T17:22:21.968Z,9.50
2023-01-11T17:25:43.877Z,9.50
2023-01-11T17:28:49.220Z,9.50
2023-01-11T17:31:51.570Z,9.50
2023-01-11T17:34:54.288Z,9.50
2023-01-11T17:38:05.415Z,9.50
2023-01-11T17:41:28.309Z,9.50
2023-01-11T17:44:49.025Z,9.50
2023-01-11T17:47:53.965Z,9.50
2023-01-11T17:50:58.915Z,9.50
2023-01-11T17:54:01.272Z,9.40
2023-01-11T17:57:03.513Z,9.50
2023-01-11T18:00:27.035Z,9.40
2023-01-11T18:03:29.209Z,9.50
2023-01-11T18:06:40.159Z,9.50
2023-01-11T18:09:51.700Z,9.40
2023-01-11T18:12:56.813Z,9.50
2023-01-11T18:15:59.134Z,9.50
2023-01-11T18:19:01.379Z,9.40
2023-01-11T18:22:03.789Z,9.50
2023-01-11T18:25:19.857Z,9.50
2023-01-11T18:28:30.232Z,9.50
2023-01-11T18:31:32.917Z,9.50
2023-01-11T18:34:35.185Z,9.50
2023-01-11T18:37:38.089Z,9.50
2023-01-11T18:40:40.250Z,9.50
2023-01-11T18:43:42.492Z,9.50
2023-01-11T18:46:44.593Z,9.40
2023-01-11T18:49:47.640Z,9.50
2023-01-11T18:52:49.736Z,9.50
2023-01-11T18:55:51.909Z,9.50
2023-01-11T18:58:53.976Z,9.50
2023-01-11T19:02:22.588Z,9.50
2023-01-11T19:05:25.064Z,9.50
2023-01-11T19:08:27.151Z,9.50
2023-01-11T19:11:30.999Z,9.50
2023-01-11T19:14:33.354Z,9.40
2023-01-11T19:17:35.406Z,9.50
2023-01-11T19:20:37.489Z,9.50
2023-01-11T19:23:39.872Z,9.50
2023-01-11T19:26:42.329Z,9.50
2023-01-11T19:29:44.557Z,9.50
2023-01-11T19:32:54.095Z,9.50
2023-01-11T19:35:56.206Z,9.50
2023-01-11T19:38:58.672Z,9.50
2023-01-11T19:42:03.000Z,9.50
2023-01-11T19:45:06.114Z,9.50
2023-01-11T19:48:08.483Z,9.50
2023-01-11T19:51:12.465Z,9.50
2023-01-11T19:54:15.782Z,9.50
2023-01-11T19:57:20.826Z,9.50
2023-01-11T20:00:23.068Z,9.50
2023-01-11T20:03:25.854Z,9.50
2023-01-11T20:06:28.289Z,9.50
2023-01-11T20:09:30.400Z,9.50
2023-01-11T20:12:32.538Z,9.50
2023-01-11T20:15:36.512Z,9.50
2023-01-11T20:18:39.092Z,9.50
2023-01-11T20:21:41.469Z,9.50
2023-01-11T20:24:43.763Z,9.50
2023-01-11T20:27:45.837Z,9.50
2023-01-11T20:30:47.945Z,9.50
2023-01-11T20:33:53.237Z,9.50
2023-01-11T20:36:55.540Z,9.50
2023-01-11T20:39:57.684Z,9.50
2023-01-11T20:42:59.794Z,9.50
2023-01-11T20:46:02.095Z,9.50
2023-01-11T20:49:06.876Z,9.50
2023-01-11T20:52:09.460Z,9.50
2023-01-11T20:55:11.588Z,9.50
2023-01-11T20:58:13.707Z,9.50
2023-01-11T21:01:17.200Z,9.50
2023-01-11T21:04:19.368Z,9.50
2023-01-11T21:07:21.496Z,9.50
2023-01-11T21:10:23.717Z,9.50
2023-01-11T21:13:25.815Z,9.50
2023-01-11T21:16:29.290Z,9.50
2023-01-11T21:19:31.891Z,9.50
2023-01-11T21:22:34.036Z,9.50
2023-01-11T21:25:36.099Z,9.50
2023-01-11T21:28:39.655Z,9.50
2023-01-11T21:31:42.311Z,9.50
2023-01-11T21:34:44.508Z,9.50
2023-01-11T21:37:46.635Z,9.50
2023-01-11T21:40:48.719Z,9.50
2023-01-11T21:43:52.741Z,9.50
2023-01-11T21:46:55.670Z,9.50
2023-01-11T21:49:57.807Z,9.50
2023-01-11T21:53:00.031Z,9.50
2023-01-11T21:56:05.920Z,9.50
2023-01-11T21:59:08.157Z,9.50
2023-01-11T22:02:11.571Z,9.50
2023-01-11T22:05:13.773Z,9.50
2023-01-11T22:08:15.957Z,9.50
2023-01-11T22:11:18.277Z,9.50
2023-01-11T22:14:20.644Z,9.50
2023-01-11T22:17:22.764Z,9.50
2023-01-11T22:20:24.880Z,9.50
2023-01-11T22:23:27.002Z,9.50
2023-01-11T22:26:33.470Z,9.50
2023-01-11T22:29:37.458Z,9.50
2023-01-11T22:32:40.320Z,9.50
2023-01-11T22:35:42.382Z,9.50
2023-01-11T22:38:44.518Z,9.50
2023-01-11T22:41:48.474Z,9.50
2023-01-11T22:44:53.506Z,9.50
2023-01-11T22:47:59.272Z,9.50
2023-01-11T22:51:06.367Z,9.50
2023-01-11T22:54:09.078Z,9.50
2023-01-11T22:57:11.180Z,9.50
2023-01-11T23:00:17.357Z,9.50
2023-01-11T23:03:19.509Z,9.50
2023-01-11T23:06:26.933Z,9.50
2023-01-11T23:09:29.031Z,9.50
2023-01-11T23:12:49.654Z,9.50
2023-01-11T23:15:53.383Z,9.50
2023-01-11T23:18:56.519Z,9.50
2023-01-11T23:21:58.733Z,9.50
2023-01-11T23:25:00.928Z,9.50
2023-01-11T23:28:03.314Z,9.50
2023-01-11T23:31:16.044Z,9.50
2023-01-11T23:34:18.153Z,9.50
2023-01-11T23:37:20.352Z,9.50
2023-01-11T23:40:22.442Z,9.50
2023-01-11T23:43:24.495Z,9.50
2023-01-11T23:46:46.048Z,9.50
2023-01-11T23:49:49.767Z,9.50
2023-01-11T23:52:51.865Z,9.50
2023-01-11T23:55:57.223Z,9.50
2023-01-11T23:58:59.460Z,9.50
